Time;durP1;ratioP1;P1;durP2;ratioP2;P2;SDS_P1;SDS_P2;PMS_P1;PMS_P2;Temp;Humidity;BMP_temperature;BMP_pressure;BME280_temperature;BME280_humidity;BME280_pressure;Samples;Min_cycle;Max_cycle;Signal;HPM_P1;HPM_P2
2023/10/09 00:02:08;;;;;;;;;;;;;;;11.82;70.93;100251.66;4995563;28;851;-57
2023/10/09 00:04:36;;;;;;;;;;;;;;;11.80;68.76;100259.63;4995472;28;891;-57
2023/10/09 00:07:04;;;;;;;;;;;;;;;11.83;69.71;100251.28;4995308;28;1934;-57
2023/10/09 00:09:31;;;;;;;;;;;;;;;11.78;69.70;100257.25;4995365;28;821;-57
2023/10/09 00:11:58;;;;;;;;;;;;;;;11.75;67.79;100246.16;4995210;28;852;-57
2023/10/09 00:14:25;;;;;;;;;;;;;;;11.79;66.79;100246.94;4995260;28;1380;-57
2023/10/09 00:19:37;;;;;;;;;;;;;;;11.86;65.09;100241.38;4995106;28;1227;-57
2023/10/09 00:22:28;;;;;;;;;;;;;;;11.87;64.51;100231.88;4995097;28;852;-57
2023/10/09 00:25:09;;;;;;;;;;;;;;;11.82;64.45;100232.28;4994386;28;1158;-57
2023/10/09 00:27:39;;;;;;;;;;;;;;;11.61;67.05;100220.09;4995277;28;1981;-57
2023/10/09 00:30:06;;;;;;;;;;;;;;;11.61;68.38;100213.78;4995206;28;864;-57
2023/10/09 00:32:33;;;;;;;;;;;;;;;11.63;68.39;100203.88;4995004;28;821;-57
2023/10/09 00:35:35;;;;;;;;;;;;;;;11.68;67.95;100205.44;4994550;28;872;-57
2023/10/09 00:37:46;;;;;;;;;;;;;;;11.71;66.42;100206.59;4994514;28;1116;-57
2023/10/09 00:40:20;;;;;;;;;;;;;;;11.73;66.21;100212.53;4994732;28;852;-57
2023/10/09 00:42:47;;;;;;;;;;;;;;;11.76;63.55;100206.22;4994706;28;876;-57
2023/10/09 00:45:24;;;;;;;;;;;;;;;11.84;64.59;100216.06;4994964;28;871;-57
2023/10/09 00:47:56;;;;;;;;;;;;;;;11.83;63.60;100208.94;4993239;28;2125;-57
2023/10/09 00:50:23;;;;;;;;;;;;;;;11.90;62.59;100206.16;4994521;28;928;-58
2023/10/09 00:53:01;;;;;;;;;;;;;;;11.95;60.43;100214.09;4994506;28;879;-58
2023/10/09 00:55:56;;;;;;;;;;;;;;;12.03;60.66;100221.19;4994393;28;908;-57
2023/10/09 00:58:23;;;;;;;;;;;;;;;12.13;60.02;100232.59;4993690;28;1019;-58
2023/10/09 01:00:52;;;;;;;;;;;;;;;12.19;60.59;100259.50;4994538;28;888;-58
2023/10/09 01:03:20;;;;;;;;;;;;;;;12.22;60.70;100277.28;4994792;28;845;-57
2023/10/09 01:11:18;;;;;;;;;;;;;;;12.28;60.24;100297.88;4994176;28;738;-58
2023/10/09 01:16:17;;;;;;;;;;;;;;;12.25;62.11;100312.53;4994145;28;690;-58
2023/10/09 01:18:44;;;;;;;;;;;;;;;12.24;62.72;100333.88;4994053;28;880;-58
2023/10/09 01:21:14;;;;;;;;;;;;;;;12.23;63.56;100350.94;4994050;28;821;-58
2023/10/09 01:24:03;;;;;;;;;;;;;;;12.19;63.67;100364.00;4993866;28;900;-58
2023/10/09 01:26:46;;;;;;;;;;;;;;;12.13;65.17;100368.38;4993835;28;860;-57
2023/10/09 01:29:22;;;;;;;;;;;;;;;12.10;65.78;100360.84;4993771;28;1910;-58
2023/10/09 01:31:55;;;;;;;;;;;;;;;12.04;66.23;100363.25;4993766;28;820;-57
2023/10/09 01:35:21;;;;;;;;;;;;;;;12.01;66.77;100370.41;4994032;28;884;-57
2023/10/09 01:37:19;;;;;;;;;;;;;;;11.93;67.58;100363.28;4986112;28;1122;-57
2023/10/09 01:39:57;;;;;;;;;;;;;;;11.92;67.81;100380.28;4993727;28;884;-58
2023/10/09 01:45:10;;;;;;;;;;;;;;;11.90;68.74;100389.00;4993683;28;812;-57
2023/10/09 01:47:40;;;;;;;;;;;;;;;11.85;69.48;100389.38;4992458;28;1945;-59
2023/10/09 01:50:13;;;;;;;;;;;;;;;11.82;68.76;100387.38;4993416;28;839;-57
2023/10/09 01:52:42;;;;;;;;;;;;;;;11.74;68.50;100403.22;4993480;28;857;-57
2023/10/09 01:55:13;;;;;;;;;;;;;;;11.74;69.26;100408.75;4993351;28;829;-57
2023/10/09 01:57:44;;;;;;;;;;;;;;;11.76;69.64;100420.22;4993423;28;862;-57
2023/10/09 02:00:23;;;;;;;;;;;;;;;11.78;69.87;100417.06;4993260;28;845;-57
2023/10/09 02:02:50;;;;;;;;;;;;;;;11.75;70.13;100420.63;4993241;28;853;-57
2023/10/09 02:07:44;;;;;;;;;;;;;;;11.74;69.42;100438.44;4992993;28;1947;-57
2023/10/09 02:10:24;;;;;;;;;;;;;;;11.75;69.36;100435.25;4993072;28;886;-58
2023/10/09 02:12:57;;;;;;;;;;;;;;;11.80;68.71;100443.19;4993128;28;966;-58
2023/10/09 02:15:51;;;;;;;;;;;;;;;11.78;68.84;100431.72;4993027;28;1301;-58
2023/10/09 02:18:25;;;;;;;;;;;;;;;11.78;68.64;100439.22;4992937;28;911;-58
2023/10/09 02:26:32;;;;;;;;;;;;;;;11.81;67.40;100438.44;4992785;28;721;-58
2023/10/09 02:28:59;;;;;;;;;;;;;;;11.80;67.38;100440.41;4992749;28;1972;-58
2023/10/09 02:31:35;;;;;;;;;;;;;;;11.81;67.57;100447.53;4992677;28;813;-58
2023/10/09 02:34:04;;;;;;;;;;;;;;;11.81;67.07;100446.75;4992773;28;852;-57
2023/10/09 02:36:34;;;;;;;;;;;;;;;11.81;67.19;100447.53;4992731;28;817;-57
2023/10/09 02:39:01;;;;;;;;;;;;;;;11.82;66.74;100457.44;4992599;28;1008;-58
2023/10/09 02:41:30;;;;;;;;;;;;;;;11.79;66.44;100460.19;4992578;28;927;-58
2023/10/09 02:43:58;;;;;;;;;;;;;;;11.75;66.55;100454.63;4992618;28;908;-57
2023/10/09 02:46:34;;;;;;;;;;;;;;;11.65;66.93;100450.69;4992639;28;876;-57
2023/10/09 02:49:06;;;;;;;;;;;;;;;11.66;66.95;100457.00;4992417;28;1890;-57
2023/10/09 02:51:33;;;;;;;;;;;;;;;11.69;67.36;100456.22;4992574;28;841;-58
2023/10/09 02:54:18;;;;;;;;;;;;;;;11.69;67.25;100469.28;4992243;28;877;-58
2023/10/09 02:56:47;;;;;;;;;;;;;;;11.67;67.33;100466.09;4992519;28;832;-58
2023/10/09 02:59:14;;;;;;;;;;;;;;;11.65;67.44;100464.53;4992410;28;900;-58
2023/10/09 03:01:41;;;;;;;;;;;;;;;11.61;68.06;100460.97;4992388;28;846;-58
2023/10/09 03:04:11;;;;;;;;;;;;;;;11.63;68.50;100477.97;4992361;28;837;-58
2023/10/09 03:06:40;;;;;;;;;;;;;;;11.64;68.25;100478.75;4992272;28;832;-58
2023/10/09 03:09:16;;;;;;;;;;;;;;;11.62;68.23;100490.22;4992263;28;1886;-58
2023/10/09 03:12:13;;;;;;;;;;;;;;;11.62;68.53;100490.22;4992229;28;1381;-57
2023/10/09 03:14:41;;;;;;;;;;;;;;;11.64;68.42;100504.47;4991748;28;1258;-57
2023/10/09 03:17:11;;;;;;;;;;;;;;;11.62;68.28;100495.75;4992394;28;860;-57
2023/10/09 03:19:37;;;;;;;;;;;;;;;11.57;68.51;100500.91;4992294;28;837;-58
2023/10/09 03:22:09;;;;;;;;;;;;;;;11.60;68.62;100484.28;4992197;28;850;-57
2023/10/09 03:24:37;;;;;;;;;;;;;;;11.59;68.48;100504.88;4992075;28;897;-58
2023/10/09 03:27:04;;;;;;;;;;;;;;;11.55;68.13;100486.66;4992172;28;853;-57
2023/10/09 03:29:30;;;;;;;;;;;;;;;11.55;67.95;100490.22;4992047;28;864;-58
2023/10/09 03:31:56;;;;;;;;;;;;;;;11.52;68.22;100493.78;4992377;28;793;-57
2023/10/09 03:34:26;;;;;;;;;;;;;;;11.51;68.75;100500.50;4992019;28;872;-58
2023/10/09 03:37:03;;;;;;;;;;;;;;;11.44;69.05;100490.19;4992115;28;915;-57
2023/10/09 03:39:41;;;;;;;;;;;;;;;11.44;69.60;100487.44;4992003;28;915;-58
2023/10/09 03:42:19;;;;;;;;;;;;;;;11.42;69.20;100491.78;4991999;28;885;-58
2023/10/09 03:44:52;;;;;;;;;;;;;;;11.40;69.01;100486.63;4992289;28;948;-57
2023/10/09 03:47:24;;;;;;;;;;;;;;;11.40;69.53;100491.38;4991855;28;1914;-57
2023/10/09 03:49:53;;;;;;;;;;;;;;;11.34;69.94;100501.25;4992312;28;813;-57
2023/10/09 03:52:20;;;;;;;;;;;;;;;11.37;70.27;100494.91;4992118;28;887;-57
2023/10/09 03:54:47;;;;;;;;;;;;;;;11.34;70.89;100481.88;4992205;28;888;-57
2023/10/09 03:57:19;;;;;;;;;;;;;;;11.31;71.47;100491.75;4992292;28;796;-57
2023/10/09 03:59:46;;;;;;;;;;;;;;;11.35;71.25;100484.25;4991900;28;888;-57
2023/10/09 04:02:13;;;;;;;;;;;;;;;11.35;71.32;100483.44;4991859;28;862;-58
2023/10/09 04:04:45;;;;;;;;;;;;;;;11.31;71.01;100479.88;4991793;28;864;-58
2023/10/09 04:07:12;;;;;;;;;;;;;;;11.30;71.10;100490.16;4991873;28;1886;-57
2023/10/09 04:09:47;;;;;;;;;;;;;;;11.30;71.43;100481.06;4991709;28;828;-58
2023/10/09 04:12:20;;;;;;;;;;;;;;;11.24;72.24;100500.00;4994877;28;1176;-57
2023/10/09 04:15:05;;;;;;;;;;;;;;;11.23;72.63;100510.28;4994916;28;1301;-58
2023/10/09 04:17:35;;;;;;;;;;;;;;;11.19;72.79;100509.47;4995425;28;920;-57
2023/10/09 04:22:59;;;;;;;;;;;;;;;11.14;70.58;100507.09;4995093;28;686;-58
2023/10/09 04:25:27;;;;;;;;;;;;;;;11.11;70.52;100516.16;4993809;28;1173;-58
2023/10/09 04:28:08;;;;;;;;;;;;;;;11.13;71.03;100519.34;4977538;28;1966;-58
2023/10/09 04:30:40;;;;;;;;;;;;;;;11.03;70.96;100517.31;4995041;28;896;-58
2023/10/09 04:33:11;;;;;;;;;;;;;;;10.99;68.67;100524.81;4995007;28;896;-57
2023/10/09 04:35:38;;;;;;;;;;;;;;;10.93;66.91;100518.84;4994943;28;865;-57
2023/10/09 04:38:05;;;;;;;;;;;;;;;10.97;66.89;100532.72;4994768;28;876;-57
2023/10/09 04:40:48;;;;;;;;;;;;;;;10.96;66.74;100533.88;4994780;28;869;-57
2023/10/09 04:43:20;;;;;;;;;;;;;;;11.00;68.46;100529.94;4994734;28;817;-57
2023/10/09 04:48:33;;;;;;;;;;;;;;;10.94;69.47;100542.56;4994739;28;1948;-58
2023/10/09 04:53:52;;;;;;;;;;;;;;;10.97;68.58;100546.53;4994632;28;635;-57
2023/10/09 04:56:24;;;;;;;;;;;;;;;10.97;68.14;100527.19;4977202;28;1936;-58
2023/10/09 04:59:03;;;;;;;;;;;;;;;10.96;67.22;100542.19;4994924;28;868;-58
2023/10/09 05:01:36;;;;;;;;;;;;;;;11.04;65.66;100533.53;4994369;28;899;-58
2023/10/09 05:04:04;;;;;;;;;;;;;;;11.08;64.76;100557.66;4994325;28;817;-58
2023/10/09 05:06:54;;;;;;;;;;;;;;;11.06;63.57;100552.50;4994370;28;1351;-58
2023/10/09 05:09:21;;;;;;;;;;;;;;;11.12;62.65;100556.50;4994242;28;1886;-58
2023/10/09 05:14:26;;;;;;;;;;;;;;;11.03;60.65;100558.81;4994064;28;1147;-57
2023/10/09 05:17:01;;;;;;;;;;;;;;;10.97;60.40;100563.16;4994138;28;872;-58
2023/10/09 05:19:48;;;;;;;;;;;;;;;10.91;60.67;100572.97;4994276;28;1226;-58
2023/10/09 05:25:39;;;;;;;;;;;;;;;10.60;60.30;100588.94;4953212;29;1157;-57
2023/10/09 05:28:25;;;;;;;;;;;;;;;10.48;60.07;100589.28;4990868;28;1910;-57
2023/10/09 05:31:33;;;;;;;;;;;;;;;10.44;60.24;100600.28;4993735;28;1519;-58
2023/10/09 05:34:00;;;;;;;;;;;;;;;10.61;59.78;100602.41;4993579;28;1242;-58
2023/10/09 05:39:18;;;;;;;;;;;;;;;11.17;58.40;100610.66;4993671;28;800;-57
2023/10/09 05:47:53;;;;;;;;;;;;;;;11.80;54.64;100631.53;4993510;28;801;-57
2023/10/09 06:08:26;;;;;;;;;;;;;;;12.77;45.97;100703.00;4993025;28;1878;-58
2023/10/09 06:13:38;;;;;;;;;;;;;;;12.45;43.58;100723.94;4992910;28;1264;-57
2023/10/09 06:16:29;;;;;;;;;;;;;;;12.58;43.87;100716.06;4992930;28;860;-58
2023/10/09 06:19:11;;;;;;;;;;;;;;;12.89;43.96;100724.81;4992938;28;841;-57
2023/10/09 06:24:14;;;;;;;;;;;;;;;13.30;42.37;100716.09;4992803;28;731;-58
2023/10/09 06:26:51;;;;;;;;;;;;;;;13.68;41.79;100719.97;4993141;28;884;-58
2023/10/09 06:34:56;;;;;;;;;;;;;;;14.67;37.38;100719.09;4992281;28;818;-58
2023/10/09 07:13:44;;;;;;;;;;;;;;;16.03;32.46;100736.53;5322738;23;1921;-65
2023/10/09 07:16:38;;;;;;;;;;;;;;;16.48;32.57;100742.69;4934510;29;927;-64
2023/10/09 07:22:02;;;;;;;;;;;;;;;17.18;30.54;100746.03;4911517;29;1100;-64
2023/10/09 07:24:43;;;;;;;;;;;;;;;16.80;30.79;100741.47;4934307;29;874;-64
2023/10/09 07:27:14;;;;;;;;;;;;;;;16.27;31.81;100754.16;4934633;29;864;-64
2023/10/09 07:29:49;;;;;;;;;;;;;;;16.38;31.83;100754.78;4934150;29;912;-64
2023/10/09 07:32:21;;;;;;;;;;;;;;;16.37;32.25;100764.38;4934541;29;1208;-65
2023/10/09 07:34:54;;;;;;;;;;;;;;;17.02;31.23;100767.03;4934254;29;845;-64
2023/10/09 07:37:30;;;;;;;;;;;;;;;17.35;30.78;100762.50;4934294;29;856;-64
2023/10/09 07:39:57;;;;;;;;;;;;;;;17.19;31.14;100762.38;4934327;29;1279;-64
2023/10/09 07:48:02;;;;;;;;;;;;;;;16.30;32.28;100751.31;4937680;29;1950;-65
2023/10/09 07:53:26;;;;;;;;;;;;;;;16.54;32.16;100766.13;4937962;29;1338;-64
2023/10/09 07:56:06;;;;;;;;;;;;;;;16.72;31.68;100765.06;4937665;29;873;-63
2023/10/09 07:58:45;;;;;;;;;;;;;;;17.30;31.09;100762.19;4937711;29;885;-65
2023/10/09 08:01:16;;;;;;;;;;;;;;;16.90;31.37;100765.63;4937585;29;943;-64
2023/10/09 08:03:45;;;;;;;;;;;;;;;16.36;32.45;100765.56;4937578;29;849;-65
2023/10/09 08:06:59;;;;;;;;;;;;;;;15.92;32.97;100768.13;4937649;29;1221;-65
2023/10/09 08:14:59;;;;;;;;;;;;;;;16.67;32.70;100762.75;4937021;29;1414;-64
2023/10/09 08:20:11;;;;;;;;;;;;;;;18.14;30.64;100763.81;4937607;29;683;-65
2023/10/09 08:22:50;;;;;;;;;;;;;;;18.11;29.77;100767.47;4937113;29;884;-66
2023/10/09 08:25:32;;;;;;;;;;;;;;;18.03;30.50;100754.84;4937239;29;873;-66
2023/10/09 08:30:49;;;;;;;;;;;;;;;18.27;29.41;100747.16;4936961;29;1089;-65
2023/10/09 08:36:04;;;;;;;;;;;;;;;19.05;29.21;100734.59;4936882;29;710;-67
2023/10/09 08:38:34;;;;;;;;;;;;;;;19.41;28.82;100731.66;4935861;29;1228;-66
2023/10/09 08:41:15;;;;;;;;;;;;;;;19.42;28.67;100729.66;4936567;29;837;-67
2023/10/09 08:43:47;;;;;;;;;;;;;;;19.02;29.17;100725.06;4936809;29;864;-66
2023/10/09 08:46:18;;;;;;;;;;;;;;;19.05;29.56;100728.97;4936753;29;844;-67
2023/10/09 08:48:44;;;;;;;;;;;;;;;19.17;28.86;100725.47;4936620;29;1948;-67
2023/10/09 08:51:12;;;;;;;;;;;;;;;19.36;28.98;100726.59;4936634;29;828;-64
2023/10/09 08:53:42;;;;;;;;;;;;;;;19.44;28.32;100718.75;4936914;29;878;-65
2023/10/09 08:56:10;;;;;;;;;;;;;;;19.19;28.63;100720.22;4936287;29;824;-67
2023/10/09 08:58:38;;;;;;;;;;;;;;;19.34;28.15;100713.00;4936407;29;881;-65
2023/10/09 09:01:04;;;;;;;;;;;;;;;19.07;28.76;100720.94;4936567;29;856;-67
2023/10/09 09:03:40;;;;;;;;;;;;;;;19.01;29.12;100723.50;4936382;29;865;-66
2023/10/09 09:06:08;;;;;;;;;;;;;;;19.06;28.89;100722.16;4936462;29;896;-66
2023/10/09 09:08:38;;;;;;;;;;;;;;;18.67;29.44;100719.06;4936207;29;1967;-67
2023/10/09 09:11:11;;;;;;;;;;;;;;;18.61;29.38;100714.44;4936253;29;883;-68
2023/10/09 09:13:49;;;;;;;;;;;;;;;18.62;29.45;100718.78;4936184;29;1391;-68
2023/10/09 09:16:17;;;;;;;;;;;;;;;18.11;29.76;100719.91;4936252;29;843;-68
2023/10/09 09:18:56;;;;;;;;;;;;;;;18.10;29.84;100712.75;4919191;29;1566;-66
2023/10/09 09:21:23;;;;;;;;;;;;;;;18.69;29.64;100710.22;4919017;29;1600;-68
2023/10/09 09:23:58;;;;;;;;;;;;;;;18.72;29.99;100707.34;4936111;29;900;-66
2023/10/09 09:26:37;;;;;;;;;;;;;;;18.93;29.49;100710.88;4936061;29;830;-67
2023/10/09 09:29:05;;;;;;;;;;;;;;;19.20;29.30;100709.78;4935913;29;1915;-67
2023/10/09 09:31:41;;;;;;;;;;;;;;;19.71;28.72;100705.22;4936010;29;860;-66
2023/10/09 09:34:17;;;;;;;;;;;;;;;19.71;28.77;100701.63;4935968;29;923;-68
2023/10/09 09:36:53;;;;;;;;;;;;;;;19.76;28.81;100709.50;4935918;29;832;-68
2023/10/09 09:39:28;;;;;;;;;;;;;;;19.52;28.78;100678.91;4935978;29;806;-69
2023/10/09 09:42:03;;;;;;;;;;;;;;;19.90;28.44;100697.88;4935729;29;884;-67
2023/10/09 09:44:43;;;;;;;;;;;;;;;20.47;28.00;100695.34;4935673;29;892;-67
2023/10/09 09:47:13;;;;;;;;;;;;;;;20.46;27.92;100687.38;4934385;29;1245;-68
2023/10/09 09:49:42;;;;;;;;;;;;;;;20.11;28.10;100684.44;4935479;29;1957;-67
2023/10/09 09:52:12;;;;;;;;;;;;;;;20.06;28.38;100687.81;4935569;29;907;-68
2023/10/09 09:54:39;;;;;;;;;;;;;;;20.01;28.46;100677.13;4935440;29;854;-68
2023/10/09 09:57:10;;;;;;;;;;;;;;;20.05;28.46;100663.78;4935504;29;829;-68
2023/10/09 09:59:55;;;;;;;;;;;;;;;19.94;28.33;100656.47;4935679;29;868;-67
2023/10/09 10:02:38;;;;;;;;;;;;;;;20.23;28.05;100657.59;4935372;29;908;-68
2023/10/09 10:05:11;;;;;;;;;;;;;;;19.96;28.25;100650.41;4935371;29;880;-69
2023/10/09 10:07:49;;;;;;;;;;;;;;;20.10;28.19;100650.00;4933675;29;1971;-67
2023/10/09 10:10:37;;;;;;;;;;;;;;;20.51;27.40;100639.88;4917726;29;1305;-66
2023/10/09 10:13:04;;;;;;;;;;;;;;;20.84;26.66;100633.19;4935220;29;1198;-67
2023/10/09 10:15:48;;;;;;;;;;;;;;;20.70;27.24;100624.03;4935235;29;853;-68
2023/10/09 10:18:19;;;;;;;;;;;;;;;20.17;27.56;100613.28;4935402;29;829;-67
2023/10/09 10:21:06;;;;;;;;;;;;;;;20.23;27.33;100618.31;4934851;29;1092;-66
2023/10/09 10:23:34;;;;;;;;;;;;;;;20.56;27.43;100602.78;4935132;29;856;-68
2023/10/09 10:26:18;;;;;;;;;;;;;;;21.06;26.74;100607.94;4934987;29;849;-68
2023/10/09 10:29:16;;;;;;;;;;;;;;;21.57;25.91;100602.09;4933433;29;1923;-67
2023/10/09 10:31:56;;;;;;;;;;;;;;;21.12;26.74;100592.06;4929502;29;1139;-69
2023/10/09 10:34:25;;;;;;;;;;;;;;;20.72;27.13;100595.50;4934729;29;900;-69
2023/10/09 10:36:58;;;;;;;;;;;;;;;20.82;27.24;100604.78;4934840;29;851;-69
2023/10/09 10:39:44;;;;;;;;;;;;;;;20.66;27.12;100602.91;4934852;29;829;-69
2023/10/09 10:42:31;;;;;;;;;;;;;;;21.06;26.39;100603.13;4934898;29;836;-69
2023/10/09 10:44:57;;;;;;;;;;;;;;;21.52;25.68;100594.25;4934691;29;1296;-69
2023/10/09 10:47:32;;;;;;;;;;;;;;;21.73;25.51;100587.03;4934743;29;1883;-69
2023/10/09 10:50:07;;;;;;;;;;;;;;;21.37;25.65;100586.31;4934700;29;934;-69
2023/10/09 10:52:44;;;;;;;;;;;;;;;21.00;26.25;100586.06;4934607;29;857;-69
2023/10/09 10:58:25;;;;;;;;;;;;;;;20.14;26.80;100571.28;4912256;29;1299;-69
2023/10/09 11:01:15;;;;;;;;;;;;;;;19.77;27.11;100570.84;4934588;29;832;-68
2023/10/09 11:04:07;;;;;;;;;;;;;;;19.76;27.03;100581.28;4934643;29;895;-68
2023/10/09 11:06:37;;;;;;;;;;;;;;;20.53;26.57;100572.81;4934325;29;1396;-67
2023/10/09 11:09:21;;;;;;;;;;;;;;;21.16;25.84;100579.44;4934363;29;1952;-67
2023/10/09 11:11:49;;;;;;;;;;;;;;;21.65;25.29;100568.88;4934404;29;921;-67
2023/10/09 11:14:23;;;;;;;;;;;;;;;21.58;25.00;100562.25;4934293;29;1490;-67
2023/10/09 11:16:57;;;;;;;;;;;;;;;21.33;25.80;100557.56;4934600;29;869;-67
2023/10/09 11:24:35;;;;;;;;;;;;;;;20.74;26.16;100531.19;4938245;29;639;-66
2023/10/09 11:27:06;;;;;;;;;;;;;;;21.57;25.69;100520.53;4938320;29;840;-67
2023/10/09 11:32:18;;;;;;;;;;;;;;;21.63;25.20;100512.28;4938131;29;615;-68
2023/10/09 11:34:52;;;;;;;;;;;;;;;21.24;25.77;100520.97;4938058;29;908;-66
2023/10/09 11:39:55;;;;;;;;;;;;;;;20.44;27.08;100515.75;4937839;29;876;-67
2023/10/09 11:42:38;;;;;;;;;;;;;;;20.37;27.65;100503.53;4937961;29;888;-67
2023/10/09 11:45:54;;;;;;;;;;;;;;;20.52;27.84;100503.84;4937992;29;814;-66
2023/10/09 11:47:59;;;;;;;;;;;;;;;20.08;28.27;100497.31;4930271;29;1890;-66
2023/10/09 11:50:42;;;;;;;;;;;;;;;20.80;27.75;100495.66;4937788;29;1043;-67
2023/10/09 11:55:49;;;;;;;;;;;;;;;22.41;25.68;100482.97;4937847;29;699;-67
2023/10/09 11:58:25;;;;;;;;;;;;;;;23.11;25.72;100477.47;4937974;29;1213;-66
2023/10/09 12:01:04;;;;;;;;;;;;;;;23.27;24.68;100486.81;4937597;29;853;-67
2023/10/09 12:03:31;;;;;;;;;;;;;;;21.80;25.51;100486.25;4937879;29;825;-67
2023/10/09 12:06:04;;;;;;;;;;;;;;;21.77;26.19;100481.56;4937642;29;849;-66
2023/10/09 12:08:32;;;;;;;;;;;;;;;22.53;26.21;100469.97;4937287;29;1894;-67
2023/10/09 12:10:58;;;;;;;;;;;;;;;22.60;26.18;100481.72;4937542;29;981;-67
2023/10/09 12:13:25;;;;;;;;;;;;;;;22.78;26.74;100478.09;4937361;29;1225;-66
2023/10/09 12:15:53;;;;;;;;;;;;;;;23.18;26.58;100465.06;4937341;29;841;-67
2023/10/09 12:18:20;;;;;;;;;;;;;;;23.20;26.20;100459.75;4937341;29;1004;-67
2023/10/09 12:21:02;;;;;;;;;;;;;;;23.19;26.47;100452.53;4937246;29;853;-66
2023/10/09 12:23:29;;;;;;;;;;;;;;;23.21;26.13;100441.56;4935861;29;1281;-67
2023/10/09 12:25:56;;;;;;;;;;;;;;;22.91;26.58;100426.44;4937323;29;833;-67
2023/10/09 12:28:23;;;;;;;;;;;;;;;22.67;27.07;100429.13;4937097;29;1906;-67
2023/10/09 12:30:52;;;;;;;;;;;;;;;22.54;27.35;100430.06;4937234;29;856;-67
2023/10/09 12:33:20;;;;;;;;;;;;;;;22.79;27.02;100426.13;4936803;29;938;-68
2023/10/09 12:35:47;;;;;;;;;;;;;;;23.13;27.28;100424.22;4937029;29;865;-67
2023/10/09 12:38:18;;;;;;;;;;;;;;;23.44;26.57;100420.31;4936771;29;853;-68
2023/10/09 12:40:51;;;;;;;;;;;;;;;22.97;26.99;100416.84;4937059;29;825;-67
2023/10/09 12:43:19;;;;;;;;;;;;;;;22.72;27.19;100409.53;4936873;29;896;-68
2023/10/09 12:45:49;;;;;;;;;;;;;;;22.96;27.38;100412.47;4936942;29;873;-67
2023/10/09 12:48:15;;;;;;;;;;;;;;;22.88;27.41;100399.97;4936729;29;1886;-68
2023/10/09 12:50:42;;;;;;;;;;;;;;;22.98;27.25;100403.53;4936738;29;860;-67
2023/10/09 12:53:17;;;;;;;;;;;;;;;23.12;26.98;100402.13;4936551;29;797;-67
2023/10/09 12:55:44;;;;;;;;;;;;;;;23.60;27.56;100402.22;4936493;29;1244;-67
2023/10/09 12:58:18;;;;;;;;;;;;;;;23.73;28.17;100416.88;4936882;29;853;-67
2023/10/09 13:00:48;;;;;;;;;;;;;;;23.04;28.69;100410.13;4936583;29;854;-67
2023/10/09 13:03:18;;;;;;;;;;;;;;;22.90;29.23;100396.69;4936507;29;892;-67
2023/10/09 13:06:31;;;;;;;;;;;;;;;23.08;29.13;100390.22;4936353;29;935;-67
2023/10/09 13:08:34;;;;;;;;;;;;;;;22.99;29.32;100382.56;4925461;29;1891;-67
2023/10/09 13:11:11;;;;;;;;;;;;;;;22.99;29.62;100379.75;4936385;29;903;-68
2023/10/09 13:14:06;;;;;;;;;;;;;;;22.80;29.34;100373.38;4936243;29;1296;-67
2023/10/09 13:16:33;;;;;;;;;;;;;;;23.25;29.46;100382.97;4936235;29;853;-67
2023/10/09 13:19:07;;;;;;;;;;;;;;;23.39;29.22;100368.16;4936232;29;912;-67
2023/10/09 13:21:34;;;;;;;;;;;;;;;23.43;29.12;100376.47;4936320;29;881;-67
2023/10/09 13:24:01;;;;;;;;;;;;;;;23.51;28.86;100372.00;4936358;29;896;-68
2023/10/09 13:26:29;;;;;;;;;;;;;;;23.88;28.96;100371.06;4936401;29;854;-68
2023/10/09 13:28:57;;;;;;;;;;;;;;;23.79;29.03;100363.41;4936079;29;1914;-67
2023/10/09 13:31:25;;;;;;;;;;;;;;;23.56;29.21;100356.50;4936096;29;846;-68
2023/10/09 13:33:56;;;;;;;;;;;;;;;23.15;29.89;100364.50;4935959;29;809;-67
2023/10/09 13:36:32;;;;;;;;;;;;;;;22.88;30.42;100351.28;4935801;29;845;-67
2023/10/09 13:39:52;;;;;;;;;;;;;;;22.63;31.12;100356.81;4935771;29;824;-67
2023/10/09 13:41:46;;;;;;;;;;;;;;;22.46;31.91;100346.38;4921579;29;1135;-66
2023/10/09 13:44:13;;;;;;;;;;;;;;;22.48;31.69;100346.69;4934824;29;821;-67
2023/10/09 13:46:42;;;;;;;;;;;;;;;22.34;31.97;100348.09;4935655;29;859;-66
2023/10/09 13:49:12;;;;;;;;;;;;;;;22.25;32.52;100345.28;4935572;29;1954;-66
2023/10/09 13:51:44;;;;;;;;;;;;;;;22.04;33.93;100342.16;4935467;29;1318;-66
2023/10/09 13:54:28;;;;;;;;;;;;;;;21.87;34.22;100330.44;4935585;29;908;-66
2023/10/09 13:56:55;;;;;;;;;;;;;;;21.07;35.22;100336.94;4935737;29;833;-66
2023/10/09 13:59:28;;;;;;;;;;;;;;;20.62;36.75;100322.19;4935716;29;892;-67
2023/10/09 14:01:55;;;;;;;;;;;;;;;20.31;37.86;100330.53;4935304;29;837;-66
2023/10/09 14:04:22;;;;;;;;;;;;;;;20.16;38.61;100328.28;4935473;29;904;-66
2023/10/09 14:06:59;;;;;;;;;;;;;;;19.93;39.53;100323.09;4935194;29;884;-64
2023/10/09 14:09:38;;;;;;;;;;;;;;;19.41;40.52;100318.81;4935162;29;1941;-65
2023/10/09 14:12:11;;;;;;;;;;;;;;;18.94;42.26;100321.09;4918331;29;1206;-65
2023/10/09 14:14:48;;;;;;;;;;;;;;;18.62;43.19;100315.66;5089531;27;1204;-65
2023/10/09 14:17:27;;;;;;;;;;;;;;;18.32;44.39;100309.31;5089400;28;857;-65
2023/10/09 14:22:45;;;;;;;;;;;;;;;17.54;47.47;100313.00;5089267;28;771;-65
2023/10/09 14:25:15;;;;;;;;;;;;;;;17.31;49.06;100317.53;5089086;28;875;-65
2023/10/09 14:27:41;;;;;;;;;;;;;;;17.30;49.83;100309.59;5089297;28;1322;-64
2023/10/09 14:30:18;;;;;;;;;;;;;;;17.22;50.61;100316.56;5089067;28;806;-64
2023/10/09 14:32:51;;;;;;;;;;;;;;;16.99;51.49;100307.13;5089086;28;1969;-64
2023/10/09 14:35:21;;;;;;;;;;;;;;;16.72;52.55;100307.31;5089019;28;869;-63
2023/10/09 14:37:48;;;;;;;;;;;;;;;16.47;54.17;100299.47;5089000;28;822;-63
2023/10/09 14:40:20;;;;;;;;;;;;;;;16.29;56.21;100292.28;5089151;28;896;-62
2023/10/09 14:42:47;;;;;;;;;;;;;;;16.18;57.06;100288.91;5088946;28;934;-63
2023/10/09 14:45:16;;;;;;;;;;;;;;;16.09;57.55;100286.72;5089010;28;844;-62
2023/10/09 14:47:42;;;;;;;;;;;;;;;16.06;58.16;100298.69;5088774;28;796;-62
2023/10/09 14:50:12;;;;;;;;;;;;;;;16.03;58.97;100299.56;5089040;28;822;-62
2023/10/09 14:52:38;;;;;;;;;;;;;;;16.04;59.74;100305.94;5088608;28;1943;-62
2023/10/09 14:55:05;;;;;;;;;;;;;;;16.07;59.81;100305.88;5088941;28;851;-63
2023/10/09 14:57:35;;;;;;;;;;;;;;;16.08;60.22;100301.06;5088755;28;790;-62
2023/10/09 15:00:07;;;;;;;;;;;;;;;15.94;61.18;100304.94;5088537;28;1046;-62
2023/10/09 15:02:33;;;;;;;;;;;;;;;15.74;62.45;100296.53;5088476;28;853;-62
2023/10/09 15:04:59;;;;;;;;;;;;;;;15.52;63.71;100307.22;5088576;28;818;-62
2023/10/09 15:07:28;;;;;;;;;;;;;;;15.35;65.05;100306.31;5088404;28;901;-62
2023/10/09 15:09:55;;;;;;;;;;;;;;;15.16;66.60;100293.13;5088327;28;822;-62
2023/10/09 15:12:22;;;;;;;;;;;;;;;14.93;69.17;100288.28;5088061;28;1947;-62
2023/10/09 15:14:48;;;;;;;;;;;;;;;14.72;71.69;100292.16;5088409;28;818;-62
2023/10/09 15:17:16;;;;;;;;;;;;;;;14.57;73.60;100288.78;5088326;28;821;-62
2023/10/09 15:19:45;;;;;;;;;;;;;;;14.50;73.70;100287.66;5088419;28;838;-62
2023/10/09 15:22:11;;;;;;;;;;;;;;;14.38;74.58;100285.44;5088113;28;869;-62
2023/10/09 15:24:37;;;;;;;;;;;;;;;14.26;76.04;100275.66;5082831;28;827;-62
2023/10/09 15:27:05;;;;;;;;;;;;;;;14.14;77.56;100281.75;5074643;28;904;-62
2023/10/09 15:29:33;;;;;;;;;;;;;;;13.99;79.88;100275.56;5074432;28;877;-63
2023/10/09 15:32:04;;;;;;;;;;;;;;;13.87;80.93;100279.69;5074434;28;814;-65
2023/10/09 15:34:31;;;;;;;;;;;;;;;13.73;82.06;100270.72;5074297;28;1913;-63
2023/10/09 15:36:58;;;;;;;;;;;;;;;13.61;83.90;100278.38;5074280;28;830;-63
2023/10/09 15:39:24;;;;;;;;;;;;;;;13.52;86.73;100271.72;5074361;28;862;-64
2023/10/09 15:41:51;;;;;;;;;;;;;;;13.39;87.27;100274.19;5074220;28;834;-64
2023/10/09 15:44:17;;;;;;;;;;;;;;;13.27;88.96;100270.72;5074199;28;838;-64
2023/10/09 15:46:46;;;;;;;;;;;;;;;13.17;90.27;100277.13;5074223;28;938;-63
2023/10/09 15:49:16;;;;;;;;;;;;;;;13.08;92.59;100272.03;5074146;28;927;-63
2023/10/09 15:51:43;;;;;;;;;;;;;;;13.01;92.72;100262.97;5074400;28;798;-63
2023/10/09 15:54:12;;;;;;;;;;;;;;;12.94;93.63;100254.72;5074317;28;1894;-63
2023/10/09 15:56:41;;;;;;;;;;;;;;;12.64;94.32;100231.94;5074139;28;851;-63